sensor_id;sensor_type;location;lat;lon;timestamp;pressure;altitude;pressure_sealevel;temperature;humidity
67840;BME280;54636;51.684;5.142;2023-06-14T00:02:02;101432.16;;;18.78;43.98
67840;BME280;54636;51.684;5.142;2023-06-14T00:04:28;101440.00;;;18.74;43.90
67840;BME280;54636;51.684;5.142;2023-06-14T00:06:54;101423.63;;;18.63;43.97
67840;BME280;54636;51.684;5.142;2023-06-14T00:09:22;101423.63;;;18.63;44.32
67840;BME280;54636;51.684;5.142;2023-06-14T00:11:47;101433.38;;;18.64;44.16
67840;BME280;54636;51.684;5.142;2023-06-14T00:14:13;101426.22;;;18.55;44.63
67840;BME280;54636;51.684;5.142;2023-06-14T00:16:39;101406.00;;;18.34;44.38
67840;BME280;54636;51.684;5.142;2023-06-14T00:19:08;101429.84;;;18.44;44.80
67840;BME280;54636;51.684;5.142;2023-06-14T00:21:35;101430.44;;;18.37;45.14
67840;BME280;54636;51.684;5.142;2023-06-14T00:24:01;101431.25;;;18.32;45.08
67840;BME280;54636;51.684;5.142;2023-06-14T00:26:27;101441.28;;;18.30;45.63
67840;BME280;54636;51.684;5.142;2023-06-14T00:28:56;101437.13;;;18.23;45.88
67840;BME280;54636;51.684;5.142;2023-06-14T00:31:22;101433.72;;;18.17;45.85
67840;BME280;54636;51.684;5.142;2023-06-14T00:33:48;101421.53;;;18.13;45.80
67840;BME280;54636;51.684;5.142;2023-06-14T00:36:13;101423.59;;;18.06;46.15
67840;BME280;54636;51.684;5.142;2023-06-14T00:38:38;101429.38;;;18.03;46.81
67840;BME280;54636;51.684;5.142;2023-06-14T00:41:04;101424.75;;;17.92;46.86
67840;BME280;54636;51.684;5.142;2023-06-14T00:43:30;101428.47;;;17.95;46.86
67840;BME280;54636;51.684;5.142;2023-06-14T00:45:55;101430.78;;;17.91;47.43
67840;BME280;54636;51.684;5.142;2023-06-14T00:48:21;101431.41;;;17.78;47.70
67840;BME280;54636;51.684;5.142;2023-06-14T00:50:49;101424.72;;;17.73;48.02
67840;BME280;54636;51.684;5.142;2023-06-14T00:53:15;101424.03;;;17.67;48.10
67840;BME280;54636;51.684;5.142;2023-06-14T00:55:42;101427.28;;;17.66;48.33
67840;BME280;54636;51.684;5.142;2023-06-14T00:58:08;101418.31;;;17.60;48.23
67840;BME280;54636;51.684;5.142;2023-06-14T01:00:34;101435.97;;;17.70;48.75
67840;BME280;54636;51.684;5.142;2023-06-14T01:03:01;101430.28;;;17.62;48.67
67840;BME280;54636;51.684;5.142;2023-06-14T01:05:29;101440.53;;;17.62;49.08
67840;BME280;54636;51.684;5.142;2023-06-14T01:08:27;101450.75;;;17.67;48.54
67840;BME280;54636;51.684;5.142;2023-06-14T01:10:57;101443.03;;;17.65;49.31
67840;BME280;54636;51.684;5.142;2023-06-14T01:13:30;101446.53;;;17.60;49.12
67840;BME280;54636;51.684;5.142;2023-06-14T01:15:57;101446.31;;;17.58;49.38
67840;BME280;54636;51.684;5.142;2023-06-14T01:18:23;101442.59;;;17.56;49.48
67840;BME280;54636;51.684;5.142;2023-06-14T01:20:49;101417.59;;;17.35;49.41
67840;BME280;54636;51.684;5.142;2023-06-14T01:23:22;101443.19;;;17.49;49.48
67840;BME280;54636;51.684;5.142;2023-06-14T01:25:48;101441.44;;;17.45;49.75
67840;BME280;54636;51.684;5.142;2023-06-14T01:28:18;101440.47;;;17.43;49.70
67840;BME280;54636;51.684;5.142;2023-06-14T01:30:47;101446.25;;;17.39;50.07
67840;BME280;54636;51.684;5.142;2023-06-14T01:33:26;101438.56;;;17.32;49.97
67840;BME280;54636;51.684;5.142;2023-06-14T01:35:53;101440.84;;;17.28;50.38
67840;BME280;54636;51.684;5.142;2023-06-14T01:38:22;101449.59;;;17.27;50.30
67840;BME280;54636;51.684;5.142;2023-06-14T01:40:48;101452.38;;;17.21;51.33
67840;BME280;54636;51.684;5.142;2023-06-14T01:43:16;101439.03;;;17.06;51.13
67840;BME280;54636;51.684;5.142;2023-06-14T01:45:42;101433.50;;;17.12;50.87
67840;BME280;54636;51.684;5.142;2023-06-14T01:48:09;101445.72;;;17.11;50.90
67840;BME280;54636;51.684;5.142;2023-06-14T01:50:35;101406.00;;;16.88;51.16
67840;BME280;54636;51.684;5.142;2023-06-14T01:53:00;101430.81;;;17.01;51.00
67840;BME280;54636;51.684;5.142;2023-06-14T01:55:26;101439.75;;;17.07;51.02
67840;BME280;54636;51.684;5.142;2023-06-14T01:57:52;101432.56;;;17.04;50.98
67840;BME280;54636;51.684;5.142;2023-06-14T02:00:19;101426.34;;;16.98;51.43
67840;BME280;54636;51.684;5.142;2023-06-14T02:02:47;101439.28;;;17.03;50.94
67840;BME280;54636;51.684;5.142;2023-06-14T02:05:13;101428.88;;;16.96;51.53
67840;BME280;54636;51.684;5.142;2023-06-14T02:07:38;101431.38;;;16.94;51.35
67840;BME280;54636;51.684;5.142;2023-06-14T02:10:04;101443.53;;;17.04;51.17
67840;BME280;54636;51.684;5.142;2023-06-14T02:12:30;101430.13;;;16.95;51.14
67840;BME280;54636;51.684;5.142;2023-06-14T02:14:55;101429.34;;;17.00;50.81
67840;BME280;54636;51.684;5.142;2023-06-14T02:17:22;101431.34;;;16.99;51.26
67840;BME280;54636;51.684;5.142;2023-06-14T02:19:47;101443.09;;;16.94;51.03
67840;BME280;54636;51.684;5.142;2023-06-14T02:22:14;101442.19;;;16.86;51.94
67840;BME280;54636;51.684;5.142;2023-06-14T02:24:40;101435.50;;;16.76;52.19
67840;BME280;54636;51.684;5.142;2023-06-14T02:27:06;101433.78;;;16.73;52.14
67840;BME280;54636;51.684;5.142;2023-06-14T02:29:32;101424.34;;;16.57;51.87
67840;BME280;54636;51.684;5.142;2023-06-14T02:31:57;101450.50;;;16.64;53.75
67840;BME280;54636;51.684;5.142;2023-06-14T02:34:22;101441.06;;;16.59;52.77
67840;BME280;54636;51.684;5.142;2023-06-14T02:36:48;101441.59;;;16.52;53.33
67840;BME280;54636;51.684;5.142;2023-06-14T02:39:14;101442.34;;;16.47;53.13
67840;BME280;54636;51.684;5.142;2023-06-14T02:41:39;101403.63;;;16.21;52.80
67840;BME280;54636;51.684;5.142;2023-06-14T02:44:05;101443.13;;;16.42;52.97
67840;BME280;54636;51.684;5.142;2023-06-14T02:46:31;101434.94;;;16.31;53.64
67840;BME280;54636;51.684;5.142;2023-06-14T02:48:57;101443.19;;;16.25;53.61
67840;BME280;54636;51.684;5.142;2023-06-14T02:51:22;101423.09;;;16.11;53.84
67840;BME280;54636;51.684;5.142;2023-06-14T02:53:47;101441.28;;;16.14;54.74
67840;BME280;54636;51.684;5.142;2023-06-14T02:56:13;101453.22;;;16.17;54.32
67840;BME280;54636;51.684;5.142;2023-06-14T02:58:38;101447.75;;;16.11;54.45
67840;BME280;54636;51.684;5.142;2023-06-14T03:01:05;101456.72;;;16.12;54.49
67840;BME280;54636;51.684;5.142;2023-06-14T03:03:33;101454.50;;;16.10;54.65
67840;BME280;54636;51.684;5.142;2023-06-14T03:05:59;101454.25;;;16.08;54.60
67840;BME280;54636;51.684;5.142;2023-06-14T03:08:30;101460.72;;;16.05;55.52
67840;BME280;54636;51.684;5.142;2023-06-14T03:10:56;101437.13;;;15.86;55.10
67840;BME280;54636;51.684;5.142;2023-06-14T03:13:22;101458.00;;;16.00;55.19
67840;BME280;54636;51.684;5.142;2023-06-14T03:15:48;101449.56;;;15.87;55.71
67840;BME280;54636;51.684;5.142;2023-06-14T03:18:16;101457.53;;;15.85;55.38
67840;BME280;54636;51.684;5.142;2023-06-14T03:20:42;101462.28;;;15.84;56.05
67840;BME280;54636;51.684;5.142;2023-06-14T03:23:08;101464.28;;;15.78;56.03
67840;BME280;54636;51.684;5.142;2023-06-14T03:25:33;101455.81;;;15.70;56.17
67840;BME280;54636;51.684;5.142;2023-06-14T03:28:03;101425.22;;;15.44;56.51
67840;BME280;54636;51.684;5.142;2023-06-14T03:30:30;101463.53;;;15.72;56.59
67840;BME280;54636;51.684;5.142;2023-06-14T03:32:56;101457.56;;;15.68;56.47
67840;BME280;54636;51.684;5.142;2023-06-14T03:35:22;101466.03;;;15.75;56.88
67840;BME280;54636;51.684;5.142;2023-06-14T03:37:48;101472.00;;;15.79;56.64
67840;BME280;54636;51.684;5.142;2023-06-14T03:40:15;101472.25;;;15.76;56.74
67840;BME280;54636;51.684;5.142;2023-06-14T03:42:41;101467.75;;;15.73;56.54
67840;BME280;54636;51.684;5.142;2023-06-14T03:45:07;101480.44;;;15.81;57.13
67840;BME280;54636;51.684;5.142;2023-06-14T03:47:34;101446.16;;;15.58;57.17
67840;BME280;54636;51.684;5.142;2023-06-14T03:50:00;101466.78;;;15.70;57.36
67840;BME280;54636;51.684;5.142;2023-06-14T03:52:26;101472.75;;;15.74;56.74
67840;BME280;54636;51.684;5.142;2023-06-14T03:54:52;101477.19;;;15.89;56.96
67840;BME280;54636;51.684;5.142;2023-06-14T03:57:18;101478.69;;;15.90;56.95
67840;BME280;54636;51.684;5.142;2023-06-14T03:59:43;101490.66;;;15.92;56.73
67840;BME280;54636;51.684;5.142;2023-06-14T04:02:09;101481.19;;;15.88;56.91
67840;BME280;54636;51.684;5.142;2023-06-14T04:04:35;101489.41;;;15.93;57.72
67840;BME280;54636;51.684;5.142;2023-06-14T04:07:01;101497.63;;;15.99;56.80
67840;BME280;54636;51.684;5.142;2023-06-14T04:09:31;101485.91;;;15.98;56.77
67840;BME280;54636;51.684;5.142;2023-06-14T04:11:57;101500.81;;;16.14;57.04
67840;BME280;54636;51.684;5.142;2023-06-14T04:14:22;101503.53;;;16.20;56.98
67840;BME280;54636;51.684;5.142;2023-06-14T04:16:49;101505.28;;;16.23;57.34
67840;BME280;54636;51.684;5.142;2023-06-14T04:19:17;101492.34;;;16.18;57.36
67840;BME280;54636;51.684;5.142;2023-06-14T04:21:43;101504.97;;;16.32;57.20
67840;BME280;54636;51.684;5.142;2023-06-14T04:24:08;101494.78;;;16.27;57.33
67840;BME280;54636;51.684;5.142;2023-06-14T04:26:39;101510.19;;;16.35;57.68
67840;BME280;54636;51.684;5.142;2023-06-14T04:29:05;101520.66;;;16.42;57.76
67840;BME280;54636;51.684;5.142;2023-06-14T04:31:31;101509.19;;;16.38;57.95
67840;BME280;54636;51.684;5.142;2023-06-14T04:34:02;101516.16;;;16.45;58.27
67840;BME280;54636;51.684;5.142;2023-06-14T04:36:32;101522.63;;;16.47;58.23
67840;BME280;54636;51.684;5.142;2023-06-14T04:39:06;101520.84;;;16.61;58.19
67840;BME280;54636;51.684;5.142;2023-06-14T04:41:31;101529.50;;;16.82;58.09
67840;BME280;54636;51.684;5.142;2023-06-14T04:43:57;101513.69;;;16.94;57.85
67840;BME280;54636;51.684;5.142;2023-06-14T04:46:29;101523.25;;;17.23;56.76
67840;BME280;54636;51.684;5.142;2023-06-14T04:48:57;101517.50;;;17.26;56.16
67840;BME280;54636;51.684;5.142;2023-06-14T04:51:23;101526.22;;;17.25;56.53
67840;BME280;54636;51.684;5.142;2023-06-14T04:53:58;101526.28;;;17.19;56.97
67840;BME280;54636;51.684;5.142;2023-06-14T04:56:26;101523.31;;;17.11;56.77
67840;BME280;54636;51.684;5.142;2023-06-14T04:58:52;101526.06;;;17.11;56.77
67840;BME280;54636;51.684;5.142;2023-06-14T05:01:18;101522.81;;;17.13;57.11
67840;BME280;54636;51.684;5.142;2023-06-14T05:03:44;101525.75;;;17.21;57.29
67840;BME280;54636;51.684;5.142;2023-06-14T05:06:10;101515.84;;;17.12;56.87
67840;BME280;54636;51.684;5.142;2023-06-14T05:08:37;101523.53;;;17.19;57.21
67840;BME280;54636;51.684;5.142;2023-06-14T05:11:02;101528.28;;;17.19;56.85
67840;BME280;54636;51.684;5.142;2023-06-14T05:13:28;101532.00;;;17.21;56.52
67840;BME280;54636;51.684;5.142;2023-06-14T05:15:53;101532.75;;;17.22;56.18
67840;BME280;54636;51.684;5.142;2023-06-14T05:18:19;101518.34;;;17.10;56.57
67840;BME280;54636;51.684;5.142;2023-06-14T05:20:45;101530.75;;;17.22;56.83
67840;BME280;54636;51.684;5.142;2023-06-14T05:23:11;101535.97;;;17.26;56.90
67840;BME280;54636;51.684;5.142;2023-06-14T05:25:44;101545.66;;;17.32;55.54
67840;BME280;54636;51.684;5.142;2023-06-14T05:28:10;101525.97;;;17.28;56.47
67840;BME280;54636;51.684;5.142;2023-06-14T05:30:38;101547.34;;;17.41;55.82
67840;BME280;54636;51.684;5.142;2023-06-14T05:33:03;101547.06;;;17.44;56.17
67840;BME280;54636;51.684;5.142;2023-06-14T05:35:29;101533.38;;;17.39;55.46
67840;BME280;54636;51.684;5.142;2023-06-14T05:37:54;101546.28;;;17.50;55.33
67840;BME280;54636;51.684;5.142;2023-06-14T05:40:20;101533.28;;;17.50;55.67
67840;BME280;54636;51.684;5.142;2023-06-14T05:42:45;101524.59;;;17.46;55.83
67840;BME280;54636;51.684;5.142;2023-06-14T05:45:11;101543.38;;;17.72;55.21
67840;BME280;54636;51.684;5.142;2023-06-14T05:47:36;101547.97;;;17.88;54.61
67840;BME280;54636;51.684;5.142;2023-06-14T05:50:02;101547.47;;;17.90;54.78
67840;BME280;54636;51.684;5.142;2023-06-14T05:52:28;101545.69;;;17.92;55.21
67840;BME280;54636;51.684;5.142;2023-06-14T05:54:54;101553.13;;;17.97;54.05
67840;BME280;54636;51.684;5.142;2023-06-14T05:57:20;101552.00;;;18.12;53.94
67840;BME280;54636;51.684;5.142;2023-06-14T05:59:46;101565.84;;;18.25;54.13
67840;BME280;54636;51.684;5.142;2023-06-14T06:02:11;101560.75;;;18.34;53.71
67840;BME280;54636;51.684;5.142;2023-06-14T06:04:36;101561.94;;;18.39;53.02
67840;BME280;54636;51.684;5.142;2023-06-14T06:07:02;101575.19;;;18.40;53.28
67840;BME280;54636;51.684;5.142;2023-06-14T06:09:29;101572.59;;;18.48;52.41
67840;BME280;54636;51.684;5.142;2023-06-14T06:11:54;101559.41;;;18.41;53.44
67840;BME280;54636;51.684;5.142;2023-06-14T06:14:19;101573.13;;;18.47;53.03
67840;BME280;54636;51.684;5.142;2023-06-14T06:16:45;101566.06;;;18.51;53.18
67840;BME280;54636;51.684;5.142;2023-06-14T06:19:10;101569.91;;;18.67;52.29
67840;BME280;54636;51.684;5.142;2023-06-14T06:21:36;101566.66;;;18.68;52.00
67840;BME280;54636;51.684;5.142;2023-06-14T06:24:01;101577.06;;;18.75;52.34
67840;BME280;54636;51.684;5.142;2023-06-14T06:26:28;101562.13;;;18.71;53.23
67840;BME280;54636;51.684;5.142;2023-06-14T06:28:54;101583.25;;;18.82;53.05
67840;BME280;54636;51.684;5.142;2023-06-14T06:31:20;101580.72;;;18.84;53.55
67840;BME280;54636;51.684;5.142;2023-06-14T06:33:47;101586.88;;;18.90;52.50
67840;BME280;54636;51.684;5.142;2023-06-14T06:36:12;101576.09;;;18.92;53.02
67840;BME280;54636;51.684;5.142;2023-06-14T06:38:38;101584.72;;;19.01;52.54
67840;BME280;54636;51.684;5.142;2023-06-14T06:41:03;101584.06;;;19.14;52.02
67840;BME280;54636;51.684;5.142;2023-06-14T06:43:28;101583.19;;;19.57;51.73
67840;BME280;54636;51.684;5.142;2023-06-14T06:45:54;101591.72;;;20.57;48.06
67840;BME280;54636;51.684;5.142;2023-06-14T06:48:19;101602.66;;;21.23;46.18
67840;BME280;54636;51.684;5.142;2023-06-14T06:50:45;101609.72;;;22.07;43.97
67840;BME280;54636;51.684;5.142;2023-06-14T06:53:10;101598.28;;;23.19;40.79
67840;BME280;54636;51.684;5.142;2023-06-14T06:55:35;101607.72;;;24.45;39.29
67840;BME280;54636;51.684;5.142;2023-06-14T06:58:01;101605.09;;;25.60;35.95
67840;BME280;54636;51.684;5.142;2023-06-14T07:00:29;101610.06;;;26.11;35.25
67840;BME280;54636;51.684;5.142;2023-06-14T07:02:55;101608.22;;;26.31;34.41
67840;BME280;54636;51.684;5.142;2023-06-14T07:05:20;101607.84;;;26.79;33.12
67840;BME280;54636;51.684;5.142;2023-06-14T07:07:46;101610.09;;;27.07;32.85
67840;BME280;54636;51.684;5.142;2023-06-14T07:10:11;101623.00;;;27.30;31.95
67840;BME280;54636;51.684;5.142;2023-06-14T07:12:36;101615.81;;;27.63;32.09
67840;BME280;54636;51.684;5.142;2023-06-14T07:15:11;101606.91;;;27.47;31.92
67840;BME280;54636;51.684;5.142;2023-06-14T07:17:36;101623.34;;;27.80;30.98
67840;BME280;54636;51.684;5.142;2023-06-14T07:20:03;101615.91;;;28.11;30.91
67840;BME280;54636;51.684;5.142;2023-06-14T07:22:33;101627.56;;;28.46;29.36
67840;BME280;54636;51.684;5.142;2023-06-14T07:24:58;101627.09;;;28.69;29.53
67840;BME280;54636;51.684;5.142;2023-06-14T07:27:24;101639.00;;;28.70;29.40
67840;BME280;54636;51.684;5.142;2023-06-14T07:29:49;101636.81;;;28.30;29.96
67840;BME280;54636;51.684;5.142;2023-06-14T07:32:14;101633.38;;;27.93;29.85
67840;BME280;54636;51.684;5.142;2023-06-14T07:34:40;101642.41;;;27.64;31.73
67840;BME280;54636;51.684;5.142;2023-06-14T07:37:05;101639.88;;;27.32;31.23
67840;BME280;54636;51.684;5.142;2023-06-14T07:39:31;101636.94;;;26.85;31.80
67840;BME280;54636;51.684;5.142;2023-06-14T07:41:56;101647.75;;;26.30;33.27
67840;BME280;54636;51.684;5.142;2023-06-14T07:44:21;101642.66;;;26.18;33.85
67840;BME280;54636;51.684;5.142;2023-06-14T07:46:47;101645.69;;;26.13;33.81
67840;BME280;54636;51.684;5.142;2023-06-14T07:49:14;101641.81;;;25.91;34.65
67840;BME280;54636;51.684;5.142;2023-06-14T07:51:40;101645.91;;;25.65;34.53
67840;BME280;54636;51.684;5.142;2023-06-14T07:54:05;101654.72;;;25.46;34.78
67840;BME280;54636;51.684;5.142;2023-06-14T07:56:32;101645.13;;;25.07;35.88
67840;BME280;54636;51.684;5.142;2023-06-14T07:58:58;101651.06;;;25.04;35.11
67840;BME280;54636;51.684;5.142;2023-06-14T08:01:23;101660.00;;;24.79;35.76
67840;BME280;54636;51.684;5.142;2023-06-14T08:03:50;101657.88;;;24.62;36.42
67840;BME280;54636;51.684;5.142;2023-06-14T08:06:16;101647.53;;;24.48;36.37
67840;BME280;54636;51.684;5.142;2023-06-14T08:08:41;101659.75;;;24.52;36.84
67840;BME280;54636;51.684;5.142;2023-06-14T08:11:07;101662.53;;;24.37;36.46
67840;BME280;54636;51.684;5.142;2023-06-14T08:13:32;101667.91;;;24.35;36.61
67840;BME280;54636;51.684;5.142;2023-06-14T08:15:57;101638.09;;;24.36;37.54
67840;BME280;54636;51.684;5.142;2023-06-14T08:18:23;101658.59;;;24.63;36.17
67840;BME280;54636;51.684;5.142;2023-06-14T08:20:49;101657.72;;;24.38;36.85
67840;BME280;54636;51.684;5.142;2023-06-14T08:23:15;101647.19;;;24.36;37.01
67840;BME280;54636;51.684;5.142;2023-06-14T08:25:44;101668.81;;;24.53;36.79
67840;BME280;54636;51.684;5.142;2023-06-14T08:28:10;101666.38;;;24.65;35.94
67840;BME280;54636;51.684;5.142;2023-06-14T08:30:35;101668.91;;;24.78;36.02
67840;BME280;54636;51.684;5.142;2023-06-14T08:33:00;101655.38;;;24.82;35.74
67840;BME280;54636;51.684;5.142;2023-06-14T08:35:26;101657.00;;;24.92;35.65
67840;BME280;54636;51.684;5.142;2023-06-14T08:37:51;101640.34;;;25.00;34.56
67840;BME280;54636;51.684;5.142;2023-06-14T08:40:23;101627.03;;;24.83;35.40
67840;BME280;54636;51.684;5.142;2023-06-14T08:42:54;101654.59;;;25.04;36.04
67840;BME280;54636;51.684;5.142;2023-06-14T08:45:20;101663.63;;;25.12;35.83
67840;BME280;54636;51.684;5.142;2023-06-14T08:47:47;101641.75;;;25.16;35.08
67840;BME280;54636;51.684;5.142;2023-06-14T08:50:21;101648.19;;;25.26;34.94
67840;BME280;54636;51.684;5.142;2023-06-14T08:52:53;101660.53;;;25.01;35.46
67840;BME280;54636;51.684;5.142;2023-06-14T08:55:19;101655.09;;;25.10;35.03
67840;BME280;54636;51.684;5.142;2023-06-14T08:57:46;101653.59;;;25.17;34.63
67840;BME280;54636;51.684;5.142;2023-06-14T09:00:13;101654.47;;;25.27;34.03
67840;BME280;54636;51.684;5.142;2023-06-14T09:02:39;101642.88;;;25.38;33.83
67840;BME280;54636;51.684;5.142;2023-06-14T09:05:11;101645.81;;;25.48;34.56
67840;BME280;54636;51.684;5.142;2023-06-14T09:07:41;101651.53;;;25.50;33.61
67840;BME280;54636;51.684;5.142;2023-06-14T09:10:11;101647.56;;;25.60;33.64
67840;BME280;54636;51.684;5.142;2023-06-14T09:12:37;101653.22;;;25.78;33.51
67840;BME280;54636;51.684;5.142;2023-06-14T09:15:06;101651.53;;;25.82;32.26
67840;BME280;54636;51.684;5.142;2023-06-14T09:17:37;101665.03;;;25.86;31.90
67840;BME280;54636;51.684;5.142;2023-06-14T09:20:03;101673.34;;;25.93;33.31
67840;BME280;54636;51.684;5.142;2023-06-14T09:22:33;101648.84;;;25.92;31.67
67840;BME280;54636;51.684;5.142;2023-06-14T09:24:59;101663.69;;;26.12;32.21
67840;BME280;54636;51.684;5.142;2023-06-14T09:27:28;101654.59;;;26.11;31.09
67840;BME280;54636;51.684;5.142;2023-06-14T09:29:54;101664.19;;;26.18;30.63
67840;BME280;54636;51.684;5.142;2023-06-14T09:32:21;101659.38;;;26.18;30.53
67840;BME280;54636;51.684;5.142;2023-06-14T09:34:47;101666.47;;;26.37;30.14
67840;BME280;54636;51.684;5.142;2023-06-14T09:37:13;101656.91;;;26.47;31.40
67840;BME280;54636;51.684;5.142;2023-06-14T09:39:58;101664.34;;;26.45;28.58
67840;BME280;54636;51.684;5.142;2023-06-14T09:42:25;101650.63;;;26.22;28.10
67840;BME280;54636;51.684;5.142;2023-06-14T09:44:56;101662.78;;;26.34;29.46
67840;BME280;54636;51.684;5.142;2023-06-14T09:47:23;101663.78;;;26.46;29.23
67840;BME280;54636;51.684;5.142;2023-06-14T09:49:50;101660.75;;;26.52;29.34
67840;BME280;54636;51.684;5.142;2023-06-14T09:52:18;101674.50;;;26.67;28.29
67840;BME280;54636;51.684;5.142;2023-06-14T09:54:45;101667.97;;;26.55;28.43
67840;BME280;54636;51.684;5.142;2023-06-14T09:57:21;101680.09;;;26.50;28.39
67840;BME280;54636;51.684;5.142;2023-06-14T09:59:48;101673.38;;;26.53;28.14
67840;BME280;54636;51.684;5.142;2023-06-14T10:02:35;101631.91;;;26.40;28.47
67840;BME280;54636;51.684;5.142;2023-06-14T10:05:05;101656.66;;;26.53;27.62
67840;BME280;54636;51.684;5.142;2023-06-14T10:07:35;101672.13;;;26.46;28.66
67840;BME280;54636;51.684;5.142;2023-06-14T10:10:01;101659.75;;;26.57;28.49
67840;BME280;54636;51.684;5.142;2023-06-14T10:12:26;101671.53;;;26.65;27.39
67840;BME280;54636;51.684;5.142;2023-06-14T10:14:53;101664.09;;;26.50;27.13
67840;BME280;54636;51.684;5.142;2023-06-14T10:17:27;101659.75;;;26.57;29.07
67840;BME280;54636;51.684;5.142;2023-06-14T10:20:14;101663.09;;;26.90;29.00
67840;BME280;54636;51.684;5.142;2023-06-14T10:22:50;101662.19;;;26.70;27.26
67840;BME280;54636;51.684;5.142;2023-06-14T10:25:29;101654.00;;;26.72;28.26
67840;BME280;54636;51.684;5.142;2023-06-14T10:28:20;101670.47;;;26.78;27.55
67840;BME280;54636;51.684;5.142;2023-06-14T10:31:09;101658.06;;;26.62;27.69
67840;BME280;54636;51.684;5.142;2023-06-14T10:33:39;101666.72;;;26.66;26.57
67840;BME280;54636;51.684;5.142;2023-06-14T10:36:30;101664.41;;;26.72;27.58
67840;BME280;54636;51.684;5.142;2023-06-14T10:39:00;101672.88;;;26.64;26.58
67840;BME280;54636;51.684;5.142;2023-06-14T10:41:29;101667.78;;;26.53;27.23
67840;BME280;54636;51.684;5.142;2023-06-14T10:46:39;101659.50;;;26.80;27.72
67840;BME280;54636;51.684;5.142;2023-06-14T10:49:05;101670.56;;;27.05;27.42
67840;BME280;54636;51.684;5.142;2023-06-14T10:51:54;101671.78;;;26.77;27.87
67840;BME280;54636;51.684;5.142;2023-06-14T10:54:22;101653.94;;;26.45;27.86
67840;BME280;54636;51.684;5.142;2023-06-14T10:56:51;101666.06;;;26.57;26.87
67840;BME280;54636;51.684;5.142;2023-06-14T10:59:17;101653.00;;;26.25;27.60
67840;BME280;54636;51.684;5.142;2023-06-14T11:01:58;101660.94;;;26.29;28.37
67840;BME280;54636;51.684;5.142;2023-06-14T11:04:50;101658.72;;;26.27;28.31
67840;BME280;54636;51.684;5.142;2023-06-14T11:07:48;101659.03;;;26.39;28.06
67840;BME280;54636;51.684;5.142;2023-06-14T11:10:40;101660.22;;;26.29;28.43
67840;BME280;54636;51.684;5.142;2023-06-14T11:13:09;101652.41;;;26.10;27.44
67840;BME280;54636;51.684;5.142;2023-06-14T11:15:38;101630.69;;;25.66;27.96
67840;BME280;54636;51.684;5.142;2023-06-14T11:18:04;101661.19;;;25.81;28.54
67840;BME280;54636;51.684;5.142;2023-06-14T11:20:32;101657.84;;;26.00;28.35
67840;BME280;54636;51.684;5.142;2023-06-14T11:22:58;101660.78;;;26.27;28.58
67840;BME280;54636;51.684;5.142;2023-06-14T11:25:24;101673.97;;;26.26;27.88
67840;BME280;54636;51.684;5.142;2023-06-14T11:27:51;101639.50;;;25.80;27.79
67840;BME280;54636;51.684;5.142;2023-06-14T11:30:17;101666.13;;;25.90;27.96
67840;BME280;54636;51.684;5.142;2023-06-14T11:32:46;101646.53;;;25.48;27.55
67840;BME280;54636;51.684;5.142;2023-06-14T11:35:12;101644.88;;;25.45;28.25
67840;BME280;54636;51.684;5.142;2023-06-14T11:37:39;101652.44;;;25.85;28.37
67840;BME280;54636;51.684;5.142;2023-06-14T11:40:06;101655.91;;;26.10;27.78
67840;BME280;54636;51.684;5.142;2023-06-14T11:42:39;101655.50;;;26.39;28.18
67840;BME280;54636;51.684;5.142;2023-06-14T11:45:08;101662.13;;;26.43;28.04
67840;BME280;54636;51.684;5.142;2023-06-14T11:47:38;101652.53;;;26.37;27.64
67840;BME280;54636;51.684;5.142;2023-06-14T11:50:06;101657.03;;;26.32;27.42
67840;BME280;54636;51.684;5.142;2023-06-14T11:52:32;101637.88;;;25.94;27.56
67840;BME280;54636;51.684;5.142;2023-06-14T11:54:58;101632.91;;;25.92;28.46
67840;BME280;54636;51.684;5.142;2023-06-14T11:57:24;101649.84;;;26.04;29.52
67840;BME280;54636;51.684;5.142;2023-06-14T11:59:50;101651.72;;;26.02;29.50
67840;BME280;54636;51.684;5.142;2023-06-14T12:02:17;101649.81;;;25.87;29.39
67840;BME280;54636;51.684;5.142;2023-06-14T12:04:51;101650.09;;;25.99;30.16
67840;BME280;54636;51.684;5.142;2023-06-14T12:07:18;101654.84;;;26.06;28.94
67840;BME280;54636;51.684;5.142;2023-06-14T12:12:21;101656.19;;;25.80;29.96
67840;BME280;54636;51.684;5.142;2023-06-14T12:14:47;101637.72;;;25.92;28.87
67840;BME280;54636;51.684;5.142;2023-06-14T12:17:13;101647.38;;;26.33;29.68
67840;BME280;54636;51.684;5.142;2023-06-14T12:19:42;101649.31;;;26.23;28.69
67840;BME280;54636;51.684;5.142;2023-06-14T12:22:12;101649.75;;;25.95;28.85
67840;BME280;54636;51.684;5.142;2023-06-14T12:24:38;101653.03;;;26.01;28.31
67840;BME280;54636;51.684;5.142;2023-06-14T12:27:05;101649.31;;;26.23;28.21
67840;BME280;54636;51.684;5.142;2023-06-14T12:29:31;101645.03;;;26.22;28.32
67840;BME280;54636;51.684;5.142;2023-06-14T12:31:57;101647.47;;;26.01;28.17
67840;BME280;54636;51.684;5.142;2023-06-14T12:34:26;101660.16;;;25.94;28.94
67840;BME280;54636;51.684;5.142;2023-06-14T12:36:55;101661.13;;;25.64;28.22
67840;BME280;54636;51.684;5.142;2023-06-14T12:39:21;101653.53;;;25.57;29.77
67840;BME280;54636;51.684;5.142;2023-06-14T12:41:47;101649.88;;;25.47;30.38
67840;BME280;54636;51.684;5.142;2023-06-14T12:44:14;101648.97;;;25.44;30.14
67840;BME280;54636;51.684;5.142;2023-06-14T12:46:40;101660.22;;;25.54;29.93
67840;BME280;54636;51.684;5.142;2023-06-14T12:49:08;101652.78;;;25.56;29.27
67840;BME280;54636;51.684;5.142;2023-06-14T12:51:34;101654.25;;;25.65;30.63
67840;BME280;54636;51.684;5.142;2023-06-14T12:54:00;101644.66;;;25.83;29.70
67840;BME280;54636;51.684;5.142;2023-06-14T12:56:25;101656.56;;;26.01;28.92
67840;BME280;54636;51.684;5.142;2023-06-14T12:58:51;101642.38;;;25.65;28.62